Time;durP1;ratioP1;P1;durP2;ratioP2;P2;SDS_P1;SDS_P2;PMS_P1;PMS_P2;Temp;Humidity;BMP_temperature;BMP_pressure;BME280_temperature;BME280_humidity;BME280_pressure;Samples;Min_cycle;Max_cycle;Signal;HPM_P1;HPM_P2
2022/07/14 00:00:15;;;;;;;7.88;1.55;;;10.00;99.90;;;;;;5019156;28;20007;-67
2022/07/14 00:02:42;;;;;;;8.57;1.38;;;10.00;99.90;;;;;;5031173;28;20033;-67
2022/07/14 00:05:10;;;;;;;7.10;1.35;;;10.10;99.90;;;;;;5038658;28;20037;-66
2022/07/14 00:07:37;;;;;;;8.20;1.23;;;10.10;99.90;;;;;;5026021;28;20025;-66
2022/07/14 00:10:05;;;;;;;6.90;0.80;;;10.20;99.90;;;;;;5018072;28;20010;-66
2022/07/14 00:12:32;;;;;;;10.20;0.93;;;10.30;99.90;;;;;;5025085;28;20037;-67
2022/07/14 00:15:00;;;;;;;9.00;1.20;;;10.40;99.90;;;;;;5023064;28;20045;-67
2022/07/14 00:17:27;;;;;;;11.25;1.30;;;10.50;99.90;;;;;;5028515;28;20025;-67
2022/07/14 00:19:54;;;;;;;6.70;1.83;;;10.50;99.90;;;;;;5028429;28;20010;-66
2022/07/14 00:22:21;;;;;;;9.95;1.38;;;10.60;99.90;;;;;;5021807;28;20022;-67
2022/07/14 00:24:49;;;;;;;8.75;1.27;;;10.60;99.90;;;;;;5018558;28;20083;-67
2022/07/14 00:27:16;;;;;;;7.05;0.95;;;10.70;99.90;;;;;;5019245;28;20022;-67
2022/07/14 00:29:43;;;;;;;8.68;1.65;;;10.80;99.90;;;;;;5018453;28;20090;-67
2022/07/14 00:32:11;;;;;;;15.05;1.48;;;10.90;99.90;;;;;;5018815;28;20018;-67
2022/07/14 00:34:38;;;;;;;12.25;1.20;;;11.10;99.90;;;;;;5018575;28;20011;-67
2022/07/14 00:37:05;;;;;;;5.88;1.00;;;11.30;99.90;;;;;;5019336;28;20018;-67
2022/07/14 00:39:54;;;;;;;12.85;1.45;;;11.30;99.90;;;;;;5018595;28;20034;-68
2022/07/14 00:42:33;;;;;;;10.52;1.27;;;11.50;99.90;;;;;;5028482;28;20014;-67
2022/07/14 00:45:09;;;;;;;8.55;1.30;;;11.70;99.90;;;;;;5038084;28;20086;-67
2022/07/14 00:47:37;;;;;;;19.40;4.07;;;11.90;99.90;;;;;;5035425;28;20053;-67
2022/07/14 00:50:06;;;;;;;8.73;2.85;;;12.30;99.90;;;;;;5038053;28;20033;-67
2022/07/14 00:52:33;;;;;;;9.93;1.70;;;12.50;99.90;;;;;;5037353;28;20014;-67
2022/07/14 00:55:01;;;;;;;11.63;1.35;;;12.70;99.90;;;;;;5041717;28;20052;-67
2022/07/14 00:57:28;;;;;;;7.47;1.08;;;12.70;99.90;;;;;;5030576;28;20019;-67
2022/07/14 00:59:56;;;;;;;10.05;1.35;;;12.60;99.90;;;;;;5022089;28;20026;-67
2022/07/14 01:02:23;;;;;;;6.95;1.50;;;12.50;99.90;;;;;;5023911;28;20019;-67
2022/07/14 01:04:51;;;;;;;10.70;2.13;;;12.50;99.90;;;;;;5022350;28;20037;-67
2022/07/14 01:07:19;;;;;;;10.00;1.38;;;12.40;99.90;;;;;;5025177;28;20018;-67
2022/07/14 01:09:47;;;;;;;8.30;1.25;;;12.50;99.90;;;;;;5021781;28;20078;-68
2022/07/14 01:12:15;;;;;;;11.63;1.25;;;12.40;99.90;;;;;;5021637;28;20021;-67
2022/07/14 01:14:42;;;;;;;9.35;1.38;;;12.50;99.90;;;;;;5030639;28;20018;-68
2022/07/14 01:17:10;;;;;;;7.15;0.70;;;12.60;99.90;;;;;;5040454;28;20070;-67
2022/07/14 01:19:38;;;;;;;7.72;1.48;;;12.80;99.90;;;;;;5041857;28;20010;-67
2022/07/14 01:22:06;;;;;;;16.58;1.50;;;12.80;99.90;;;;;;5033260;28;20090;-67
2022/07/14 01:24:34;;;;;;;7.60;0.93;;;12.80;99.90;;;;;;5021774;28;20045;-67
2022/07/14 01:27:02;;;;;;;8.43;1.30;;;12.80;99.90;;;;;;5022268;28;20034;-67
2022/07/14 01:29:29;;;;;;;10.13;1.85;;;13.00;99.90;;;;;;5021965;28;20022;-67
2022/07/14 01:31:57;;;;;;;9.52;0.95;;;13.30;99.90;;;;;;5028293;28;20033;-67
2022/07/14 01:34:24;;;;;;;4.90;0.80;;;13.30;99.90;;;;;;5041396;28;20281;-67
2022/07/14 01:36:54;;;;;;;7.82;0.70;;;13.30;99.90;;;;;;5034541;28;20038;-67
2022/07/14 01:39:22;;;;;;;8.35;1.23;;;13.10;99.90;;;;;;5021701;28;20038;-67
2022/07/14 01:41:50;;;;;;;5.22;1.40;;;13.10;99.90;;;;;;5030130;28;20015;-68
2022/07/14 01:44:17;;;;;;;6.18;0.65;;;13.20;99.90;;;;;;5021591;28;20021;-67
2022/07/14 01:46:45;;;;;;;4.45;0.70;;;13.20;99.90;;;;;;5026952;28;20093;-67
2022/07/14 01:49:12;;;;;;;8.45;0.95;;;13.10;99.90;;;;;;5040106;28;20025;-67
2022/07/14 01:51:39;;;;;;;11.38;1.27;;;13.00;99.90;;;;;;5035253;28;20014;-67
2022/07/14 01:54:06;;;;;;;6.55;1.05;;;13.10;99.90;;;;;;5020617;28;20023;-67
2022/07/14 01:56:41;;;;;;;7.55;0.63;;;13.30;99.90;;;;;;5021383;28;20037;-67
2022/07/14 01:59:09;;;;;;;11.95;1.98;;;13.60;99.90;;;;;;5021409;28;20070;-67
2022/07/14 02:01:40;;;;;;;6.00;1.10;;;13.80;99.90;;;;;;5024631;28;20030;-67
2022/07/14 02:04:10;;;;;;;8.13;1.42;;;13.80;99.90;;;;;;5020259;28;20074;-67
2022/07/14 02:06:41;;;;;;;7.32;1.00;;;13.90;99.90;;;;;;5021174;28;20010;-67
2022/07/14 02:09:08;;;;;;;5.97;0.82;;;14.10;99.90;;;;;;5029493;28;20049;-67
2022/07/14 02:14:21;;;;;;;5.88;0.95;;;13.70;99.90;;;;;;5020961;28;20048;-67
2022/07/14 02:16:48;;;;;;;5.93;0.88;;;13.70;99.90;;;;;;5020866;28;20014;-67
2022/07/14 02:19:16;;;;;;;8.02;1.08;;;13.50;99.90;;;;;;5021104;28;20042;-68
2022/07/14 02:21:44;;;;;;;5.80;0.68;;;13.40;99.90;;;;;;5025519;28;20005;-67
2022/07/14 02:24:11;;;;;;;5.25;1.30;;;13.30;99.90;;;;;;5040232;28;20018;-67
2022/07/14 02:26:39;;;;;;;5.82;1.02;;;13.30;99.90;;;;;;5038876;28;20010;-66
2022/07/14 02:29:07;;;;;;;10.43;1.45;;;13.30;99.90;;;;;;5040083;28;20030;-67
2022/07/14 02:31:34;;;;;;;7.40;1.30;;;13.40;99.90;;;;;;5036914;28;20014;-66
2022/07/14 02:34:03;;;;;;;8.25;2.05;;;13.60;99.90;;;;;;5020427;28;20014;-66
2022/07/14 02:36:30;;;;;;;5.55;0.52;;;13.80;99.90;;;;;;5020211;28;20014;-66
2022/07/14 02:38:58;;;;;;;6.65;1.05;;;14.10;99.90;;;;;;5020103;28;20018;-67
2022/07/14 02:41:25;;;;;;;11.07;1.23;;;13.70;99.90;;;;;;5020728;28;20026;-66
2022/07/14 02:43:52;;;;;;;5.57;0.70;;;13.50;99.90;;;;;;5020352;28;20019;-66
2022/07/14 02:46:20;;;;;;;6.05;1.00;;;13.50;99.90;;;;;;5020236;28;20041;-67
2022/07/14 02:48:47;;;;;;;8.60;0.95;;;13.30;99.90;;;;;;5020038;28;20046;-67
2022/07/14 02:51:15;;;;;;;3.35;1.00;;;13.20;99.90;;;;;;5031865;28;20010;-66
2022/07/14 02:53:42;;;;;;;6.95;1.35;;;13.40;99.90;;;;;;5020398;28;20042;-67
2022/07/14 02:56:10;;;;;;;6.10;0.73;;;13.50;99.90;;;;;;5022482;28;20018;-66
2022/07/14 02:58:37;;;;;;;3.75;0.95;;;13.50;99.90;;;;;;5038279;28;20076;-66
2022/07/14 03:01:09;;;;;;;4.50;0.80;;;13.50;99.90;;;;;;5039046;28;20040;-66
2022/07/14 03:03:37;;;;;;;6.47;1.25;;;13.90;99.90;;;;;;5025682;28;20021;-66
2022/07/14 03:06:31;;;;;;;5.70;1.13;;;13.70;99.90;;;;;;5019460;28;20014;-66
2022/07/14 03:08:58;;;;;;;4.80;0.65;;;13.90;99.90;;;;;;5017485;28;20035;-66
2022/07/14 03:11:25;;;;;;;9.43;0.90;;;14.10;99.90;;;;;;5021161;28;20041;-66
2022/07/14 03:13:52;;;;;;;6.30;1.25;;;14.10;99.90;;;;;;5039397;28;20006;-67
2022/07/14 03:16:20;;;;;;;4.68;0.63;;;14.20;99.90;;;;;;5028484;28;20127;-66
2022/07/14 03:18:47;;;;;;;5.97;0.65;;;13.90;99.90;;;;;;5038834;28;20018;-66
2022/07/14 03:21:14;;;;;;;4.82;1.13;;;13.80;99.90;;;;;;5037682;28;20010;-66
2022/07/14 03:23:41;;;;;;;12.20;1.67;;;13.90;99.90;;;;;;5019116;28;20086;-67
2022/07/14 03:26:09;;;;;;;9.45;1.23;;;14.10;99.90;;;;;;5020348;28;20091;-67
2022/07/14 03:28:37;;;;;;;6.07;0.90;;;13.80;99.90;;;;;;5038576;28;20064;-67
2022/07/14 03:31:04;;;;;;;9.07;1.50;;;13.70;99.90;;;;;;5021270;28;20018;-67
2022/07/14 03:33:31;;;;;;;4.70;0.68;;;13.60;99.90;;;;;;5038557;28;20065;-67
2022/07/14 03:35:59;;;;;;;7.80;1.10;;;13.50;99.90;;;;;;5039024;28;20017;-67
2022/07/14 03:38:26;;;;;;;7.68;0.82;;;13.60;99.90;;;;;;5019868;28;20058;-67
2022/07/14 03:40:54;;;;;;;13.00;1.45;;;13.60;99.90;;;;;;5019437;28;20022;-67
2022/07/14 03:43:21;;;;;;;4.90;0.70;;;13.50;99.90;;;;;;5036809;28;20026;-67
2022/07/14 03:45:49;;;;;;;8.00;1.88;;;13.40;99.90;;;;;;5036840;28;20014;-67
2022/07/14 03:48:16;;;;;;;9.88;1.13;;;13.40;99.90;;;;;;5021316;28;20054;-66
2022/07/14 03:50:43;;;;;;;10.05;1.00;;;13.30;99.90;;;;;;5021550;28;20027;-67
2022/07/14 03:53:11;;;;;;;5.68;0.88;;;13.20;99.90;;;;;;5035461;28;20061;-66
2022/07/14 03:55:43;;;;;;;5.03;1.08;;;13.20;99.90;;;;;;5038652;28;20069;-66
2022/07/14 03:58:11;;;;;;;7.88;1.27;;;13.30;99.90;;;;;;5025292;28;20030;-66
2022/07/14 04:00:38;;;;;;;5.03;1.00;;;13.20;99.90;;;;;;5017992;28;20582;-66
2022/07/14 04:03:06;;;;;;;9.27;1.23;;;13.20;99.90;;;;;;5026900;28;20073;-66
2022/07/14 04:05:33;;;;;;;8.20;1.35;;;13.20;99.90;;;;;;5036686;28;20033;-66
2022/07/14 04:08:00;;;;;;;9.27;1.05;;;13.20;99.90;;;;;;5036878;28;20034;-66
2022/07/14 04:10:28;;;;;;;5.78;1.35;;;13.20;99.90;;;;;;5037851;28;20026;-67
2022/07/14 04:12:56;;;;;;;4.82;1.13;;;13.20;99.90;;;;;;5037690;28;20040;-66
2022/07/14 04:15:23;;;;;;;5.93;1.20;;;13.20;99.90;;;;;;5037836;28;20013;-66
2022/07/14 04:17:51;;;;;;;6.25;0.90;;;13.20;99.90;;;;;;5032733;28;20030;-66
2022/07/14 04:20:18;;;;;;;7.10;1.33;;;13.20;99.90;;;;;;5038619;28;20021;-66
2022/07/14 04:22:47;;;;;;;7.60;1.50;;;13.30;99.90;;;;;;5024103;28;20026;-67
2022/07/14 04:25:15;;;;;;;6.22;0.98;;;13.30;99.90;;;;;;5018370;28;20030;-67
2022/07/14 04:27:42;;;;;;;5.60;0.60;;;13.30;99.90;;;;;;5031434;28;20041;-68
2022/07/14 04:30:11;;;;;;;3.53;0.80;;;13.40;99.90;;;;;;5018501;28;20014;-68
2022/07/14 04:32:40;;;;;;;9.13;1.10;;;13.40;99.90;;;;;;5030295;28;20101;-68
2022/07/14 04:35:08;;;;;;;12.23;2.28;;;13.40;99.90;;;;;;5038397;28;20014;-69
2022/07/14 04:37:35;;;;;;;5.45;1.15;;;13.40;99.90;;;;;;5025706;28;20038;-67
2022/07/14 04:40:03;;;;;;;7.57;0.93;;;13.40;99.90;;;;;;5032863;28;20014;-67
2022/07/14 04:42:30;;;;;;;7.43;2.00;;;13.50;99.90;;;;;;5027672;28;20232;-67
2022/07/14 04:44:57;;;;;;;6.68;1.20;;;13.50;99.90;;;;;;5019770;28;20022;-66
2022/07/14 04:47:25;;;;;;;6.55;0.82;;;13.60;99.90;;;;;;5034492;28;20034;-67
2022/07/14 04:52:45;;;;;;;12.20;2.08;;;13.70;99.90;;;;;;5036146;28;20036;-67
2022/07/14 04:55:13;;;;;;;8.95;1.15;;;13.80;99.90;;;;;;5037911;28;20018;-68
2022/07/14 04:57:41;;;;;;;5.68;1.15;;;13.80;99.90;;;;;;5027044;28;20037;-68
2022/07/14 05:00:09;;;;;;;8.45;0.95;;;13.70;99.90;;;;;;5034659;28;20022;-67
2022/07/14 05:02:37;;;;;;;6.47;0.60;;;13.60;99.90;;;;;;5036271;28;20022;-67
2022/07/14 05:05:05;;;;;;;7.03;1.27;;;13.80;99.90;;;;;;5037866;28;20006;-67
2022/07/14 05:07:33;;;;;;;7.75;0.77;;;13.80;99.90;;;;;;5025605;28;20022;-68
2022/07/14 05:10:00;;;;;;;3.83;0.60;;;13.80;99.90;;;;;;5018000;28;20019;-68
2022/07/14 05:12:29;;;;;;;4.30;0.63;;;13.70;99.90;;;;;;5018409;28;20033;-67
2022/07/14 05:14:56;;;;;;;6.57;1.20;;;13.70;99.90;;;;;;5018119;28;20074;-67
2022/07/14 05:17:23;;;;;;;7.05;0.85;;;13.70;99.90;;;;;;5018792;28;20021;-68
2022/07/14 05:19:51;;;;;;;8.68;1.40;;;13.70;99.90;;;;;;5018146;28;20037;-67
2022/07/14 05:22:18;;;;;;;5.53;0.90;;;13.70;99.90;;;;;;5027358;28;20029;-67
2022/07/14 05:24:46;;;;;;;9.43;0.77;;;13.70;99.90;;;;;;5037822;28;20017;-67
2022/07/14 05:27:13;;;;;;;6.22;0.70;;;13.70;99.90;;;;;;5024210;28;20022;-67
2022/07/14 05:29:40;;;;;;;8.55;0.88;;;13.70;99.90;;;;;;5018160;28;20042;-67
2022/07/14 05:32:08;;;;;;;6.90;0.98;;;13.60;99.90;;;;;;5026017;28;20014;-67
2022/07/14 05:34:42;;;;;;;4.35;0.70;;;13.60;99.90;;;;;;5037800;28;20014;-67
2022/07/14 05:37:09;;;;;;;8.95;0.93;;;13.60;99.90;;;;;;5033116;28;20006;-67
2022/07/14 05:39:37;;;;;;;4.65;1.33;;;13.60;99.90;;;;;;5018906;28;20074;-67
2022/07/14 05:42:04;;;;;;;6.75;0.68;;;13.60;99.90;;;;;;5037329;28;20021;-67
2022/07/14 05:44:32;;;;;;;8.25;1.20;;;13.60;99.90;;;;;;5041181;28;20053;-67
2022/07/14 05:46:59;;;;;;;6.85;0.90;;;13.60;99.90;;;;;;5025690;28;20062;-67
2022/07/14 05:49:26;;;;;;;2.97;0.70;;;13.60;99.90;;;;;;5021557;28;20026;-67
2022/07/14 05:51:53;;;;;;;6.00;0.90;;;13.60;99.90;;;;;;5023193;28;20022;-67
2022/07/14 05:54:21;;;;;;;4.03;0.80;;;13.60;99.90;;;;;;5037460;28;20014;-67
2022/07/14 05:56:48;;;;;;;5.32;0.90;;;13.60;99.90;;;;;;5025336;28;20007;-67
2022/07/14 05:59:15;;;;;;;7.75;1.17;;;13.60;99.90;;;;;;5021391;28;20034;-67
2022/07/14 06:01:43;;;;;;;5.63;1.17;;;13.50;99.90;;;;;;5025794;28;20010;-67
2022/07/14 06:04:10;;;;;;;7.03;1.05;;;13.50;99.90;;;;;;5041060;28;20018;-67
2022/07/14 06:06:37;;;;;;;4.45;0.80;;;13.50;99.90;;;;;;5035615;28;20019;-67
2022/07/14 06:09:04;;;;;;;3.85;0.70;;;13.40;99.90;;;;;;5025441;28;20050;-67
2022/07/14 06:11:31;;;;;;;3.80;0.60;;;13.40;99.90;;;;;;5022174;28;20021;-67
2022/07/14 06:14:01;;;;;;;5.38;0.57;;;13.30;99.90;;;;;;5025144;28;20042;-67
2022/07/14 06:16:28;;;;;;;7.97;0.73;;;13.30;99.90;;;;;;5038225;28;20029;-67
2022/07/14 06:18:56;;;;;;;8.20;1.10;;;13.30;99.90;;;;;;5040628;28;20017;-67
2022/07/14 06:21:23;;;;;;;4.82;0.90;;;13.20;99.90;;;;;;5037542;28;20082;-67
2022/07/14 06:23:50;;;;;;;6.57;1.05;;;13.20;99.90;;;;;;5022322;28;20037;-67
2022/07/14 06:26:18;;;;;;;6.25;0.90;;;13.10;99.90;;;;;;5022214;28;20050;-66
2022/07/14 06:28:46;;;;;;;5.43;0.77;;;13.10;99.90;;;;;;5032645;28;20033;-70
2022/07/14 06:31:15;;;;;;;4.20;0.45;;;13.10;99.90;;;;;;5031903;28;20010;-67
2022/07/14 06:33:43;;;;;;;6.97;1.08;;;13.00;99.90;;;;;;5028112;28;20022;-67
2022/07/14 06:36:10;;;;;;;3.35;0.80;;;13.00;99.90;;;;;;5025610;28;20064;-67
2022/07/14 06:38:37;;;;;;;7.75;1.17;;;13.00;99.90;;;;;;5034476;28;20044;-67
2022/07/14 06:41:04;;;;;;;3.42;0.73;;;13.00;99.90;;;;;;5029463;28;20088;-67
2022/07/14 06:43:32;;;;;;;4.10;0.98;;;13.00;99.90;;;;;;5029952;28;20015;-65
2022/07/14 06:45:59;;;;;;;4.10;0.75;;;13.00;99.90;;;;;;5027018;28;20014;-66
2022/07/14 06:48:26;;;;;;;7.60;0.88;;;12.90;99.90;;;;;;5033257;28;20121;-65
2022/07/14 06:50:53;;;;;;;3.53;0.80;;;12.90;99.90;;;;;;5034418;28;20030;-66
2022/07/14 06:53:21;;;;;;;6.90;1.83;;;12.80;99.90;;;;;;5035712;28;20038;-66
2022/07/14 06:55:48;;;;;;;14.60;6.57;;;12.80;99.90;;;;;;5031244;28;20030;-66
2022/07/14 06:58:15;;;;;;;4.43;0.82;;;12.70;99.90;;;;;;5031160;28;20026;-65
2022/07/14 07:00:42;;;;;;;4.50;2.00;;;12.60;99.90;;;;;;5034902;28;20014;-65
2022/07/14 07:03:13;;;;;;;7.65;1.83;;;12.70;99.90;;;;;;5026646;28;20017;-66
2022/07/14 07:08:28;;;;;;;4.40;0.80;;;12.50;99.90;;;;;;5005293;28;20081;-68
2022/07/14 07:10:59;;;;;;;1.35;0.70;;;12.60;99.90;;;;;;5016331;28;20086;-70
2022/07/14 07:13:29;;;;;;;8.18;0.85;;;12.50;99.90;;;;;;5022097;28;20028;-69
2022/07/14 07:15:57;;;;;;;7.65;0.70;;;12.50;99.90;;;;;;5016139;28;20029;-69
2022/07/14 07:18:24;;;;;;;6.43;0.70;;;12.40;99.90;;;;;;5020050;28;20076;-68
2022/07/14 07:20:51;;;;;;;3.88;1.08;;;12.40;99.90;;;;;;5024200;28;20100;-68
2022/07/14 07:23:18;;;;;;;4.53;1.00;;;12.30;99.90;;;;;;5020185;28;20085;-68
2022/07/14 07:25:45;;;;;;;2.50;0.80;;;12.30;99.90;;;;;;5022992;28;20117;-69
2022/07/14 07:28:13;;;;;;;2.95;0.55;;;12.30;99.90;;;;;;5022676;28;20078;-67
2022/07/14 07:30:40;;;;;;;5.38;0.95;;;12.20;99.90;;;;;;5020326;28;20022;-68
2022/07/14 07:33:08;;;;;;;4.97;1.08;;;12.20;99.90;;;;;;5018914;28;20542;-67
2022/07/14 07:35:35;;;;;;;5.22;0.77;;;12.20;99.90;;;;;;5022005;28;20021;-68
2022/07/14 07:38:03;;;;;;;4.88;1.02;;;12.20;99.90;;;;;;5014392;28;20061;-67
2022/07/14 07:40:30;;;;;;;4.07;0.75;;;12.10;99.90;;;;;;5021712;28;20034;-67
2022/07/14 07:42:57;;;;;;;2.08;0.60;;;12.20;99.90;;;;;;5017137;28;20022;-68
2022/07/14 07:45:24;;;;;;;2.03;0.50;;;12.20;99.90;;;;;;5020157;28;20022;-68
2022/07/14 07:47:51;;;;;;;3.13;1.02;;;12.20;99.90;;;;;;5009688;28;20038;-68
2022/07/14 07:50:19;;;;;;;4.80;1.10;;;12.20;99.90;;;;;;5023083;28;20026;-68
2022/07/14 07:52:46;;;;;;;5.05;1.60;;;12.10;99.90;;;;;;5018127;28;20034;-68
2022/07/14 07:55:14;;;;;;;7.15;0.90;;;12.00;99.90;;;;;;5016020;28;20521;-68
2022/07/14 07:57:43;;;;;;;3.58;0.93;;;12.10;99.90;;;;;;5014253;28;20391;-68
2022/07/14 08:00:11;;;;;;;1.73;0.60;;;12.10;99.90;;;;;;5006564;28;20028;-69
2022/07/14 08:02:49;;;;;;;4.03;1.15;;;12.00;99.90;;;;;;5003791;28;20101;-67
2022/07/14 08:05:22;;;;;;;4.05;0.88;;;12.00;99.90;;;;;;5006817;28;20027;-68
2022/07/14 08:07:52;;;;;;;2.60;0.80;;;12.00;99.90;;;;;;5012262;28;20082;-67
2022/07/14 08:10:20;;;;;;;3.85;0.70;;;12.00;99.90;;;;;;5001737;28;20026;-68
2022/07/14 08:12:47;;;;;;;3.42;0.88;;;11.90;99.90;;;;;;5014377;28;20029;-68
2022/07/14 08:15:16;;;;;;;3.30;1.25;;;11.90;99.90;;;;;;5018312;28;20042;-68
2022/07/14 08:17:43;;;;;;;2.70;1.33;;;11.90;99.90;;;;;;5007548;28;20126;-67
2022/07/14 08:20:12;;;;;;;3.40;1.67;;;11.90;99.90;;;;;;5015096;28;20033;-69
2022/07/14 08:22:40;;;;;;;3.63;0.50;;;11.90;99.90;;;;;;5015069;28;20036;-67
2022/07/14 08:25:10;;;;;;;3.40;0.60;;;11.90;99.90;;;;;;5010742;28;20102;-67
2022/07/14 08:27:37;;;;;;;3.03;0.40;;;11.80;99.90;;;;;;5016923;28;20018;-67
2022/07/14 08:30:07;;;;;;;3.22;0.40;;;11.80;99.90;;;;;;5013368;28;20030;-67
2022/07/14 08:32:47;;;;;;;4.43;0.70;;;11.80;99.90;;;;;;5017634;28;20510;-66
2022/07/14 08:35:16;;;;;;;6.68;0.70;;;11.80;99.90;;;;;;5018477;28;20033;-67
2022/07/14 08:37:44;;;;;;;4.22;0.50;;;11.80;99.90;;;;;;5016759;28;20026;-67
2022/07/14 08:40:14;;;;;;;2.92;0.85;;;11.70;99.90;;;;;;5011767;28;20505;-66
2022/07/14 08:42:46;;;;;;;10.13;1.40;;;11.70;99.90;;;;;;5014480;28;20039;-67
2022/07/14 08:45:16;;;;;;;4.18;0.90;;;11.60;99.90;;;;;;5027355;28;20018;-65
2022/07/14 08:47:45;;;;;;;5.63;0.63;;;11.60;99.90;;;;;;5018468;28;20107;-68
2022/07/14 08:50:15;;;;;;;3.42;0.80;;;11.50;99.90;;;;;;5012906;28;20026;-66
2022/07/14 08:52:44;;;;;;;4.40;1.58;;;11.50;99.90;;;;;;5013196;28;20117;-66
2022/07/14 08:55:12;;;;;;;5.13;1.30;;;11.50;99.90;;;;;;5033846;28;20201;-65
2022/07/14 08:57:41;;;;;;;8.73;0.90;;;11.50;99.90;;;;;;5036871;28;20022;-66
2022/07/14 09:00:12;;;;;;;4.28;0.95;;;11.50;99.90;;;;;;5036347;28;20030;-66
2022/07/14 09:02:41;;;;;;;3.00;0.90;;;11.50;99.90;;;;;;5033079;28;20045;-66
2022/07/14 09:05:09;;;;;;;4.35;1.08;;;11.50;99.90;;;;;;5019292;28;20030;-68
2022/07/14 09:07:38;;;;;;;2.92;0.88;;;11.60;99.90;;;;;;5022169;28;20088;-67
2022/07/14 09:10:11;;;;;;;2.33;1.00;;;11.50;99.90;;;;;;5028198;28;20096;-66
2022/07/14 09:12:41;;;;;;;2.40;0.60;;;11.40;99.90;;;;;;5034425;28;20010;-66
2022/07/14 09:18:00;;;;;;;12.13;1.52;;;11.50;99.90;;;;;;5040753;28;20065;-66
2022/07/14 09:20:30;;;;;;;2.88;0.85;;;11.50;99.90;;;;;;5038632;28;20022;-66
2022/07/14 09:22:59;;;;;;;3.53;0.75;;;11.50;99.90;;;;;;5031273;28;20042;-67
2022/07/14 09:25:28;;;;;;;4.53;1.10;;;11.50;99.90;;;;;;5039523;28;20021;-66
2022/07/14 09:27:56;;;;;;;5.47;1.52;;;11.50;99.90;;;;;;5027385;28;20042;-66
2022/07/14 09:30:25;;;;;;;2.00;0.75;;;11.40;99.90;;;;;;5040590;28;20022;-67
2022/07/14 09:33:10;;;;;;;6.60;1.10;;;11.40;99.90;;;;;;5036108;28;20021;-67
2022/07/14 09:35:41;;;;;;;3.40;0.65;;;11.40;99.90;;;;;;5037077;28;20033;-67
2022/07/14 09:38:25;;;;;;;3.35;0.77;;;11.50;99.90;;;;;;5040523;28;20034;-65
2022/07/14 09:41:08;;;;;;;3.50;0.55;;;11.50;99.90;;;;;;5040959;28;20086;-66
2022/07/14 09:43:35;;;;;;;7.88;1.13;;;11.40;99.90;;;;;;5037880;28;20022;-66
2022/07/14 09:46:02;;;;;;;5.70;0.80;;;11.40;99.90;;;;;;5029360;28;20010;-66
2022/07/14 09:48:29;;;;;;;5.07;1.20;;;11.40;99.90;;;;;;5040679;28;20061;-67
2022/07/14 09:51:00;;;;;;;6.05;1.17;;;11.30;99.90;;;;;;5040785;28;20010;-66
2022/07/14 09:53:36;;;;;;;3.97;1.10;;;11.30;99.90;;;;;;5041104;28;20085;-66
2022/07/14 09:56:08;;;;;;;7.43;1.13;;;11.30;99.90;;;;;;5040035;28;20033;-66
2022/07/14 09:58:57;;;;;;;6.90;1.35;;;11.20;99.90;;;;;;5040071;28;20038;-67
2022/07/14 10:01:24;;;;;;;3.08;0.90;;;11.20;99.90;;;;;;5026336;28;20022;-67
2022/07/14 10:03:54;;;;;;;7.25;2.00;;;11.20;99.90;;;;;;5031190;28;20016;-67
2022/07/14 10:06:23;;;;;;;4.55;1.50;;;11.10;99.90;;;;;;5027301;28;20025;-67
2022/07/14 10:08:55;;;;;;;4.40;1.10;;;11.00;99.90;;;;;;5056942;28;20021;-67
2022/07/14 10:11:23;;;;;;;4.45;1.40;;;10.90;99.90;;;;;;5033501;28;20018;-67
2022/07/14 10:13:50;;;;;;;8.35;1.27;;;10.80;99.90;;;;;;5033555;28;20006;-67
2022/07/14 10:16:19;;;;;;;5.85;1.15;;;10.80;99.90;;;;;;5038772;28;20022;-67
2022/07/14 10:18:46;;;;;;;4.05;1.33;;;10.70;99.90;;;;;;5033281;28;20029;-68
2022/07/14 10:21:15;;;;;;;4.32;1.45;;;10.70;99.90;;;;;;5023831;28;20011;-67
2022/07/14 10:23:43;;;;;;;3.80;0.75;;;10.80;99.90;;;;;;5027056;28;20040;-67
2022/07/14 10:26:10;;;;;;;8.63;1.23;;;10.90;99.90;;;;;;5020220;28;20128;-67
2022/07/14 10:28:41;;;;;;;5.68;1.13;;;10.90;99.90;;;;;;5039606;28;20050;-67
2022/07/14 10:31:08;;;;;;;6.07;0.93;;;10.90;99.90;;;;;;5040164;28;20045;-67
2022/07/14 10:33:53;;;;;;;3.67;1.08;;;10.90;99.90;;;;;;5031246;28;20025;-67
2022/07/14 10:36:27;;;;;;;8.18;3.95;;;10.90;99.90;;;;;;5030235;28;20014;-68
2022/07/14 10:39:09;;;;;;;7.90;1.87;;;10.90;99.90;;;;;;5033776;28;20045;-67
2022/07/14 10:41:45;;;;;;;8.75;1.52;;;10.80;99.90;;;;;;5039523;28;20014;-67
2022/07/14 10:44:21;;;;;;;6.78;1.40;;;10.70;99.90;;;;;;5037371;28;20014;-67
2022/07/14 10:46:51;;;;;;;5.30;2.10;;;10.70;99.90;;;;;;5039164;28;20061;-67
2022/07/14 10:49:19;;;;;;;6.90;1.65;;;10.60;99.90;;;;;;5039915;28;20036;-67
2022/07/14 10:51:51;;;;;;;8.20;1.35;;;10.50;99.90;;;;;;5035070;28;20033;-68
2022/07/14 10:54:30;;;;;;;5.80;1.05;;;10.60;99.90;;;;;;5042019;28;20010;-67
2022/07/14 10:57:17;;;;;;;4.70;1.77;;;10.60;99.90;;;;;;5038036;28;20021;-67
2022/07/14 10:59:46;;;;;;;3.22;1.48;;;10.60;99.90;;;;;;5038789;28;20037;-67
2022/07/14 11:02:14;;;;;;;6.40;1.60;;;10.60;99.90;;;;;;5039632;28;20029;-68
2022/07/14 11:04:59;;;;;;;5.97;1.27;;;10.50;99.90;;;;;;5038198;28;20022;-67
2022/07/14 11:07:51;;;;;;;4.13;1.75;;;10.40;99.90;;;;;;5031402;28;20025;-67
2022/07/14 11:10:21;;;;;;;8.15;2.17;;;10.30;99.90;;;;;;5034068;28;20026;-67
2022/07/14 11:13:06;;;;;;;4.15;1.40;;;10.30;99.90;;;;;;5033834;28;20034;-67
2022/07/14 11:15:40;;;;;;;5.45;1.85;;;10.20;99.90;;;;;;5035368;28;20010;-67
2022/07/14 11:18:28;;;;;;;5.25;1.48;;;10.20;99.90;;;;;;5038869;28;20025;-68
2022/07/14 11:21:19;;;;;;;10.93;1.70;;;10.10;99.90;;;;;;5036368;28;20037;-68
2022/07/14 11:23:49;;;;;;;7.28;1.98;;;10.10;99.90;;;;;;5038796;28;20036;-67
2022/07/14 11:26:37;;;;;;;7.57;1.85;;;10.10;99.90;;;;;;5031042;28;20045;-67
2022/07/14 11:29:07;;;;;;;5.40;1.63;;;10.10;99.90;;;;;;5030409;28;20025;-67
2022/07/14 11:31:44;;;;;;;5.20;1.58;;;10.10;99.90;;;;;;5025072;28;20022;-68
2022/07/14 11:37:15;;;;;;;5.93;1.70;;;9.70;99.90;;;;;;5019068;28;20040;-67
2022/07/14 11:39:46;;;;;;;3.33;1.48;;;9.60;99.90;;;;;;5036637;28;20029;-67
2022/07/14 11:42:17;;;;;;;6.35;2.35;;;9.50;99.90;;;;;;5031683;28;20038;-67
2022/07/14 11:44:45;;;;;;;5.65;1.65;;;9.50;99.90;;;;;;5029276;28;20010;-67
2022/07/14 11:47:19;;;;;;;9.02;1.50;;;9.50;99.90;;;;;;5034065;28;20042;-69
2022/07/14 11:49:59;;;;;;;4.90;1.90;;;9.50;99.90;;;;;;5025076;28;20037;-67
2022/07/14 11:52:32;;;;;;;9.60;2.05;;;9.40;99.90;;;;;;5031638;28;20028;-68
2022/07/14 11:55:02;;;;;;;7.90;2.13;;;9.30;99.90;;;;;;5027729;28;20014;-68
2022/07/14 11:57:29;;;;;;;9.32;2.53;;;9.30;99.90;;;;;;5025511;28;20022;-68
2022/07/14 12:00:09;;;;;;;6.88;1.90;;;9.30;99.90;;;;;;5022466;28;20068;-68
2022/07/14 12:02:58;;;;;;;4.30;1.50;;;9.20;99.90;;;;;;5027852;28;20015;-68
2022/07/14 12:05:30;;;;;;;7.90;2.28;;;9.20;99.90;;;;;;5033293;28;20014;-68
2022/07/14 12:08:02;;;;;;;5.30;1.77;;;9.30;99.90;;;;;;5029542;28;20037;-68
2022/07/14 12:10:38;;;;;;;8.00;2.42;;;9.20;99.90;;;;;;5034537;28;20014;-67
2022/07/14 12:13:06;;;;;;;5.85;2.97;;;9.20;99.90;;;;;;5038342;28;20041;-67
2022/07/14 12:15:36;;;;;;;6.20;1.80;;;9.20;99.90;;;;;;5038560;28;20028;-67
2022/07/14 12:18:04;;;;;;;5.22;1.50;;;9.10;99.90;;;;;;5036337;28;20097;-67
2022/07/14 12:20:46;;;;;;;4.45;1.63;;;9.10;99.90;;;;;;5037141;28;20006;-67
2022/07/14 12:23:15;;;;;;;7.68;2.05;;;9.10;99.90;;;;;;5038034;28;20018;-67
2022/07/14 12:25:47;;;;;;;6.20;1.60;;;9.10;99.90;;;;;;5037611;28;20045;-67
2022/07/14 12:28:17;;;;;;;4.72;1.85;;;9.10;99.90;;;;;;5036810;28;20052;-67
2022/07/14 12:30:53;;;;;;;9.20;1.85;;;9.10;99.90;;;;;;5037429;28;20014;-67
2022/07/14 12:33:23;;;;;;;6.75;1.95;;;9.00;99.90;;;;;;5036519;28;20018;-67
2022/07/14 12:35:54;;;;;;;4.72;1.75;;;9.00;99.90;;;;;;5033941;28;20022;-67
2022/07/14 12:38:21;;;;;;;4.88;1.92;;;9.00;99.90;;;;;;5033910;28;20029;-67
2022/07/14 12:40:57;;;;;;;4.38;2.30;;;9.00;99.90;;;;;;5030507;28;20034;-68
2022/07/14 12:43:26;;;;;;;7.93;2.47;;;9.00;99.90;;;;;;5033254;28;20022;-67
2022/07/14 12:46:11;;;;;;;6.72;1.70;;;8.90;99.90;;;;;;5031300;28;20025;-67
2022/07/14 12:48:50;;;;;;;7.60;1.88;;;8.90;99.90;;;;;;5033526;28;20041;-67
2022/07/14 12:51:36;;;;;;;4.88;2.03;;;8.90;99.90;;;;;;5036847;28;20022;-67
2022/07/14 12:54:32;;;;;;;6.82;1.85;;;8.80;99.90;;;;;;5034387;28;20042;-67
2022/07/14 12:56:59;;;;;;;4.68;1.90;;;8.90;99.90;;;;;;5035440;28;20032;-67
2022/07/14 12:59:37;;;;;;;8.80;2.45;;;8.90;99.90;;;;;;5034107;28;20010;-67
2022/07/14 13:02:10;;;;;;;8.07;2.78;;;9.00;99.90;;;;;;5030060;28;20077;-67
2022/07/14 13:04:48;;;;;;;9.13;2.63;;;8.90;99.90;;;;;;5033095;28;20010;-67
2022/07/14 13:07:27;;;;;;;10.18;2.75;;;8.80;99.90;;;;;;5035535;28;20014;-67
2022/07/14 13:10:14;;;;;;;5.65;2.63;;;8.70;99.90;;;;;;5035235;28;20056;-67
2022/07/14 13:12:45;;;;;;;6.68;2.80;;;8.70;99.90;;;;;;5035830;28;20030;-67
2022/07/14 13:15:15;;;;;;;4.53;1.85;;;8.70;99.90;;;;;;5033996;28;20014;-66